sensor_id;sensor_type;location;lat;lon;timestamp;pressure;altitude;pressure_sealevel;temperature;humidity
15694;BME280;7947;48.834;9.132;2023-01-29T00:02:45;99310.69;;;1.71;73.49
15694;BME280;7947;48.834;9.132;2023-01-29T00:05:48;99313.31;;;1.71;73.42
15694;BME280;7947;48.834;9.132;2023-01-29T00:08:51;99309.41;;;1.67;73.53
15694;BME280;7947;48.834;9.132;2023-01-29T00:11:55;99305.59;;;1.70;73.70
15694;BME280;7947;48.834;9.132;2023-01-29T00:15:00;99315.72;;;1.66;73.65
15694;BME280;7947;48.834;9.132;2023-01-29T00:18:03;99317.78;;;1.71;73.78
15694;BME280;7947;48.834;9.132;2023-01-29T00:21:08;99306.97;;;1.66;73.97
15694;BME280;7947;48.834;9.132;2023-01-29T00:24:11;99312.06;;;1.67;74.33
15694;BME280;7947;48.834;9.132;2023-01-29T00:27:15;99315.72;;;1.66;74.35
15694;BME280;7947;48.834;9.132;2023-01-29T00:30:18;99312.63;;;1.63;74.33
15694;BME280;7947;48.834;9.132;2023-01-29T00:33:22;99322.41;;;1.62;74.48
15694;BME280;7947;48.834;9.132;2023-01-29T00:36:25;99309.94;;;1.56;74.98
15694;BME280;7947;48.834;9.132;2023-01-29T00:39:28;99308.53;;;1.60;74.59
15694;BME280;7947;48.834;9.132;2023-01-29T00:42:50;99301.25;;;1.62;74.52
15694;BME280;7947;48.834;9.132;2023-01-29T00:46:10;99304.44;;;1.58;74.35
15694;BME280;7947;48.834;9.132;2023-01-29T00:49:14;99305.16;;;1.66;74.53
15694;BME280;7947;48.834;9.132;2023-01-29T00:52:17;99312.25;;;1.66;74.59
15694;BME280;7947;48.834;9.132;2023-01-29T00:55:26;99307.97;;;1.65;74.31
15694;BME280;7947;48.834;9.132;2023-01-29T00:58:30;99304.19;;;1.53;74.12
15694;BME280;7947;48.834;9.132;2023-01-29T01:01:35;99309.72;;;1.58;73.96
15694;BME280;7947;48.834;9.132;2023-01-29T01:05:11;99305.72;;;1.62;74.11
15694;BME280;7947;48.834;9.132;2023-01-29T01:08:18;99310.81;;;1.63;73.84
15694;BME280;7947;48.834;9.132;2023-01-29T01:11:38;99307.72;;;1.60;73.52
15694;BME280;7947;48.834;9.132;2023-01-29T01:14:42;99312.38;;;1.58;73.50
15694;BME280;7947;48.834;9.132;2023-01-29T01:17:46;99304.06;;;1.61;72.89
15694;BME280;7947;48.834;9.132;2023-01-29T01:20:55;99317.16;;;1.48;73.25
15694;BME280;7947;48.834;9.132;2023-01-29T01:24:00;99310.25;;;1.47;73.67
15694;BME280;7947;48.834;9.132;2023-01-29T01:27:06;99296.75;;;1.42;73.89
15694;BME280;7947;48.834;9.132;2023-01-29T01:30:11;99299.47;;;1.48;73.13
15694;BME280;7947;48.834;9.132;2023-01-29T01:33:15;99295.81;;;1.49;73.74
15694;BME280;7947;48.834;9.132;2023-01-29T01:36:19;99306.78;;;1.46;73.66
15694;BME280;7947;48.834;9.132;2023-01-29T01:39:22;99314.78;;;1.53;74.09
15694;BME280;7947;48.834;9.132;2023-01-29T01:42:28;99307.00;;;1.51;73.85
15694;BME280;7947;48.834;9.132;2023-01-29T01:45:34;99305.50;;;1.63;73.61
15694;BME280;7947;48.834;9.132;2023-01-29T01:48:37;99300.41;;;1.62;73.60
15694;BME280;7947;48.834;9.132;2023-01-29T01:51:42;99300.16;;;1.57;73.10
15694;BME280;7947;48.834;9.132;2023-01-29T01:54:47;99304.38;;;1.51;73.67
15694;BME280;7947;48.834;9.132;2023-01-29T01:57:53;99300.66;;;1.46;73.10
15694;BME280;7947;48.834;9.132;2023-01-29T02:00:58;99301.59;;;1.38;73.46
15694;BME280;7947;48.834;9.132;2023-01-29T02:04:05;99297.56;;;1.42;73.75
15694;BME280;7947;48.834;9.132;2023-01-29T02:07:26;99289.56;;;1.36;73.80
15694;BME280;7947;48.834;9.132;2023-01-29T02:10:47;99304.25;;;1.38;73.01
15694;BME280;7947;48.834;9.132;2023-01-29T02:13:51;99305.75;;;1.47;72.41
15694;BME280;7947;48.834;9.132;2023-01-29T02:16:56;99309.41;;;1.46;72.37
15694;BME280;7947;48.834;9.132;2023-01-29T02:20:05;99305.91;;;1.39;72.31
15694;BME280;7947;48.834;9.132;2023-01-29T02:23:24;99300.53;;;1.33;72.77
15694;BME280;7947;48.834;9.132;2023-01-29T02:26:49;99311.44;;;1.30;73.19
15694;BME280;7947;48.834;9.132;2023-01-29T02:30:03;99310.75;;;1.21;73.14
15694;BME280;7947;48.834;9.132;2023-01-29T02:33:12;99310.84;;;1.28;73.39
15694;BME280;7947;48.834;9.132;2023-01-29T02:36:29;99301.34;;;1.33;73.22
15694;BME280;7947;48.834;9.132;2023-01-29T02:39:37;99295.97;;;1.27;73.50
15694;BME280;7947;48.834;9.132;2023-01-29T02:42:46;99299.66;;;1.26;73.02
15694;BME280;7947;48.834;9.132;2023-01-29T02:45:59;99307.47;;;1.19;72.98
15694;BME280;7947;48.834;9.132;2023-01-29T02:49:08;99300.94;;;1.15;73.29
15694;BME280;7947;48.834;9.132;2023-01-29T02:52:15;99302.84;;;1.21;73.37
15694;BME280;7947;48.834;9.132;2023-01-29T02:55:23;99301.47;;;1.25;72.96
15694;BME280;7947;48.834;9.132;2023-01-29T02:58:30;99292.34;;;1.28;73.20
15694;BME280;7947;48.834;9.132;2023-01-29T03:01:40;99289.63;;;1.21;73.31
15694;BME280;7947;48.834;9.132;2023-01-29T03:04:50;99302.28;;;1.26;72.58
15694;BME280;7947;48.834;9.132;2023-01-29T03:08:00;99297.81;;;1.26;72.63
15694;BME280;7947;48.834;9.132;2023-01-29T03:11:05;99302.91;;;1.28;72.37
15694;BME280;7947;48.834;9.132;2023-01-29T03:14:11;99301.19;;;1.20;72.53
15694;BME280;7947;48.834;9.132;2023-01-29T03:17:19;99296.41;;;1.30;71.61
15694;BME280;7947;48.834;9.132;2023-01-29T03:20:25;99299.06;;;1.30;71.95
15694;BME280;7947;48.834;9.132;2023-01-29T03:23:34;99302.34;;;1.32;72.05
15694;BME280;7947;48.834;9.132;2023-01-29T03:26:57;99299.16;;;1.37;72.19
15694;BME280;7947;48.834;9.132;2023-01-29T03:30:21;99307.50;;;1.40;72.53
15694;BME280;7947;48.834;9.132;2023-01-29T03:33:48;99299.31;;;1.14;72.35
15694;BME280;7947;48.834;9.132;2023-01-29T03:36:54;99299.56;;;1.05;72.82
15694;BME280;7947;48.834;9.132;2023-01-29T03:40:00;99298.97;;;1.03;73.39
15694;BME280;7947;48.834;9.132;2023-01-29T03:43:08;99298.16;;;1.02;73.52
15694;BME280;7947;48.834;9.132;2023-01-29T03:46:17;99296.13;;;1.04;72.98
15694;BME280;7947;48.834;9.132;2023-01-29T03:49:33;99297.41;;;1.08;73.35
15694;BME280;7947;48.834;9.132;2023-01-29T03:52:49;99297.84;;;1.12;73.13
15694;BME280;7947;48.834;9.132;2023-01-29T03:55:57;99295.84;;;0.99;73.40
15694;BME280;7947;48.834;9.132;2023-01-29T03:59:07;99302.22;;;1.05;73.13
15694;BME280;7947;48.834;9.132;2023-01-29T04:02:19;99298.41;;;1.07;73.04
15694;BME280;7947;48.834;9.132;2023-01-29T04:05:35;99302.78;;;1.00;72.83
15694;BME280;7947;48.834;9.132;2023-01-29T04:08:47;99299.41;;;1.06;72.86
15694;BME280;7947;48.834;9.132;2023-01-29T04:11:56;99307.06;;;1.01;72.99
15694;BME280;7947;48.834;9.132;2023-01-29T04:15:05;99302.78;;;1.00;73.01
15694;BME280;7947;48.834;9.132;2023-01-29T04:18:10;99298.69;;;1.12;72.86
15694;BME280;7947;48.834;9.132;2023-01-29T04:21:18;99303.97;;;1.12;72.13
15694;BME280;7947;48.834;9.132;2023-01-29T04:24:20;99305.13;;;1.10;72.90
15694;BME280;7947;48.834;9.132;2023-01-29T04:27:29;99313.41;;;1.07;73.80
15694;BME280;7947;48.834;9.132;2023-01-29T04:30:43;99309.06;;;0.99;73.68
15694;BME280;7947;48.834;9.132;2023-01-29T04:33:53;99308.19;;;0.92;73.96
15694;BME280;7947;48.834;9.132;2023-01-29T04:37:08;99306.53;;;0.91;73.66
15694;BME280;7947;48.834;9.132;2023-01-29T04:40:19;99293.59;;;0.96;74.23
15694;BME280;7947;48.834;9.132;2023-01-29T04:43:25;99298.50;;;0.99;74.77
15694;BME280;7947;48.834;9.132;2023-01-29T04:46:34;99303.44;;;1.02;75.45
15694;BME280;7947;48.834;9.132;2023-01-29T04:49:45;99303.69;;;1.07;75.27
15694;BME280;7947;48.834;9.132;2023-01-29T04:52:54;99303.88;;;1.06;74.53
15694;BME280;7947;48.834;9.132;2023-01-29T04:56:06;99296.47;;;1.16;73.89
15694;BME280;7947;48.834;9.132;2023-01-29T04:59:13;99288.91;;;1.13;74.27
15694;BME280;7947;48.834;9.132;2023-01-29T05:02:21;99305.06;;;1.03;74.03
15694;BME280;7947;48.834;9.132;2023-01-29T05:05:27;99299.06;;;0.95;74.18
15694;BME280;7947;48.834;9.132;2023-01-29T05:08:32;99298.97;;;1.03;73.96
15694;BME280;7947;48.834;9.132;2023-01-29T05:11:38;99294.44;;;0.97;73.37
15694;BME280;7947;48.834;9.132;2023-01-29T05:14:43;99296.88;;;0.98;73.99
15694;BME280;7947;48.834;9.132;2023-01-29T05:17:46;99296.44;;;0.95;74.32
15694;BME280;7947;48.834;9.132;2023-01-29T05:20:50;99301.00;;;0.86;74.05
15694;BME280;7947;48.834;9.132;2023-01-29T05:24:13;99306.06;;;0.87;73.59
15694;BME280;7947;48.834;9.132;2023-01-29T05:27:19;99306.53;;;0.91;73.94
15694;BME280;7947;48.834;9.132;2023-01-29T05:30:40;99314.72;;;0.81;74.11
15694;BME280;7947;48.834;9.132;2023-01-29T05:33:43;99310.91;;;0.84;73.87
15694;BME280;7947;48.834;9.132;2023-01-29T05:36:46;99309.72;;;0.86;73.66
15694;BME280;7947;48.834;9.132;2023-01-29T05:39:50;99306.66;;;0.83;73.65
15694;BME280;7947;48.834;9.132;2023-01-29T05:42:53;99308.38;;;0.76;73.75
15694;BME280;7947;48.834;9.132;2023-01-29T05:45:57;99292.72;;;0.89;74.23
15694;BME280;7947;48.834;9.132;2023-01-29T05:49:00;99287.06;;;0.92;73.41
15694;BME280;7947;48.834;9.132;2023-01-29T05:52:03;99275.66;;;0.91;72.92
15694;BME280;7947;48.834;9.132;2023-01-29T05:55:09;99252.97;;;0.97;72.84
15694;BME280;7947;48.834;9.132;2023-01-29T05:58:12;99251.72;;;0.93;71.81
15694;BME280;7947;48.834;9.132;2023-01-29T06:01:17;99268.66;;;0.84;72.68
15694;BME280;7947;48.834;9.132;2023-01-29T06:04:20;99277.13;;;0.79;72.61
15694;BME280;7947;48.834;9.132;2023-01-29T06:07:23;99281.97;;;0.90;73.13
15694;BME280;7947;48.834;9.132;2023-01-29T06:10:27;99279.22;;;0.84;73.83
15694;BME280;7947;48.834;9.132;2023-01-29T06:13:30;99278.88;;;0.87;73.65
15694;BME280;7947;48.834;9.132;2023-01-29T06:16:32;99284.50;;;0.84;73.82
15694;BME280;7947;48.834;9.132;2023-01-29T06:19:35;99283.34;;;0.86;74.06
15694;BME280;7947;48.834;9.132;2023-01-29T06:22:38;99290.44;;;0.86;73.88
15694;BME280;7947;48.834;9.132;2023-01-29T06:25:42;99289.44;;;0.87;74.04
15694;BME280;7947;48.834;9.132;2023-01-29T06:28:47;99287.88;;;0.93;73.49
15694;BME280;7947;48.834;9.132;2023-01-29T06:31:50;99291.16;;;0.80;73.71
15694;BME280;7947;48.834;9.132;2023-01-29T06:34:53;99294.28;;;0.69;74.75
15694;BME280;7947;48.834;9.132;2023-01-29T06:37:56;99285.97;;;0.72;74.33
15694;BME280;7947;48.834;9.132;2023-01-29T06:41:08;99291.19;;;0.65;74.82
15694;BME280;7947;48.834;9.132;2023-01-29T06:44:11;99289.09;;;0.75;74.68
15694;BME280;7947;48.834;9.132;2023-01-29T06:47:14;99294.81;;;0.79;73.50
15694;BME280;7947;48.834;9.132;2023-01-29T06:50:17;99282.69;;;0.70;73.25
15694;BME280;7947;48.834;9.132;2023-01-29T06:53:20;99285.19;;;0.71;73.76
15694;BME280;7947;48.834;9.132;2023-01-29T06:56:24;99288.06;;;0.76;74.23
15694;BME280;7947;48.834;9.132;2023-01-29T06:59:27;99299.16;;;0.86;73.97
15694;BME280;7947;48.834;9.132;2023-01-29T07:02:33;99302.78;;;0.85;73.66
15694;BME280;7947;48.834;9.132;2023-01-29T07:05:36;99308.91;;;0.86;73.96
15694;BME280;7947;48.834;9.132;2023-01-29T07:08:39;99297.34;;;0.87;73.07
15694;BME280;7947;48.834;9.132;2023-01-29T07:11:43;99303.09;;;0.90;73.20
15694;BME280;7947;48.834;9.132;2023-01-29T07:14:46;99292.34;;;0.77;73.49
15694;BME280;7947;48.834;9.132;2023-01-29T07:17:57;99305.72;;;0.76;74.53
15694;BME280;7947;48.834;9.132;2023-01-29T07:21:03;99302.91;;;0.77;74.11
15694;BME280;7947;48.834;9.132;2023-01-29T07:24:07;99308.47;;;0.82;74.82
15694;BME280;7947;48.834;9.132;2023-01-29T07:27:11;99306.47;;;0.84;74.32
15694;BME280;7947;48.834;9.132;2023-01-29T07:30:15;99306.72;;;0.89;74.58
15694;BME280;7947;48.834;9.132;2023-01-29T07:33:19;99314.09;;;0.94;74.21
15694;BME280;7947;48.834;9.132;2023-01-29T07:36:22;99320.25;;;1.01;73.98
15694;BME280;7947;48.834;9.132;2023-01-29T07:39:25;99320.09;;;1.03;73.90
15694;BME280;7947;48.834;9.132;2023-01-29T07:42:30;99326.47;;;1.08;73.89
15694;BME280;7947;48.834;9.132;2023-01-29T07:45:33;99325.72;;;1.14;73.79
15694;BME280;7947;48.834;9.132;2023-01-29T07:48:36;99330.63;;;1.17;74.15
15694;BME280;7947;48.834;9.132;2023-01-29T07:51:39;99329.50;;;1.26;74.10
15694;BME280;7947;48.834;9.132;2023-01-29T07:54:42;99329.78;;;1.17;74.14
15694;BME280;7947;48.834;9.132;2023-01-29T07:57:46;99332.00;;;1.13;74.39
15694;BME280;7947;48.834;9.132;2023-01-29T08:00:49;99345.44;;;1.18;74.39
15694;BME280;7947;48.834;9.132;2023-01-29T08:03:52;99339.72;;;1.15;73.96
15694;BME280;7947;48.834;9.132;2023-01-29T08:06:54;99336.72;;;1.18;74.18
15694;BME280;7947;48.834;9.132;2023-01-29T08:09:57;99335.38;;;1.22;73.18
15694;BME280;7947;48.834;9.132;2023-01-29T08:13:02;99335.81;;;1.25;73.32
15694;BME280;7947;48.834;9.132;2023-01-29T08:16:06;99334.78;;;1.26;74.01
15694;BME280;7947;48.834;9.132;2023-01-29T08:19:09;99343.78;;;1.32;73.33
15694;BME280;7947;48.834;9.132;2023-01-29T08:22:12;99345.59;;;1.46;73.26
15694;BME280;7947;48.834;9.132;2023-01-29T08:25:15;99354.47;;;1.59;72.56
15694;BME280;7947;48.834;9.132;2023-01-29T08:28:19;99356.25;;;1.52;72.60
15694;BME280;7947;48.834;9.132;2023-01-29T08:31:22;99355.16;;;1.47;72.23
15694;BME280;7947;48.834;9.132;2023-01-29T08:34:25;99350.44;;;1.42;72.52
15694;BME280;7947;48.834;9.132;2023-01-29T08:37:28;99359.00;;;1.30;72.61
15694;BME280;7947;48.834;9.132;2023-01-29T08:40:31;99363.19;;;1.39;72.87
15694;BME280;7947;48.834;9.132;2023-01-29T08:43:36;99365.00;;;1.38;73.02
15694;BME280;7947;48.834;9.132;2023-01-29T08:46:39;99368.03;;;1.35;73.12
15694;BME280;7947;48.834;9.132;2023-01-29T08:49:42;99363.56;;;1.36;73.38
15694;BME280;7947;48.834;9.132;2023-01-29T08:52:44;99361.19;;;1.41;73.73
15694;BME280;7947;48.834;9.132;2023-01-29T08:55:47;99363.25;;;1.45;73.49
15694;BME280;7947;48.834;9.132;2023-01-29T08:58:51;99360.16;;;1.56;73.37
15694;BME280;7947;48.834;9.132;2023-01-29T09:01:54;99368.72;;;1.58;72.65
15694;BME280;7947;48.834;9.132;2023-01-29T09:04:57;99355.31;;;1.60;73.03
15694;BME280;7947;48.834;9.132;2023-01-29T09:07:59;99361.03;;;1.63;72.34
15694;BME280;7947;48.834;9.132;2023-01-29T09:11:02;99370.03;;;1.69;71.64
15694;BME280;7947;48.834;9.132;2023-01-29T09:14:06;99384.63;;;1.65;72.46
15694;BME280;7947;48.834;9.132;2023-01-29T09:17:10;99372.19;;;1.80;72.00
15694;BME280;7947;48.834;9.132;2023-01-29T09:20:12;99371.41;;;1.86;71.09
15694;BME280;7947;48.834;9.132;2023-01-29T09:23:15;99367.81;;;1.94;70.22
15694;BME280;7947;48.834;9.132;2023-01-29T09:26:18;99372.13;;;1.95;70.34
15694;BME280;7947;48.834;9.132;2023-01-29T09:29:22;99385.53;;;1.93;69.60
15694;BME280;7947;48.834;9.132;2023-01-29T09:32:25;99382.69;;;1.95;70.63
15694;BME280;7947;48.834;9.132;2023-01-29T09:35:50;99376.47;;;2.02;70.32
15694;BME280;7947;48.834;9.132;2023-01-29T09:38:53;99367.84;;;2.15;70.34
15694;BME280;7947;48.834;9.132;2023-01-29T09:42:00;99370.94;;;2.25;70.55
15694;BME280;7947;48.834;9.132;2023-01-29T09:45:09;99353.94;;;2.34;69.73
15694;BME280;7947;48.834;9.132;2023-01-29T09:48:14;99354.19;;;2.39;69.43
15694;BME280;7947;48.834;9.132;2023-01-29T09:51:24;99347.16;;;2.52;67.48
15694;BME280;7947;48.834;9.132;2023-01-29T09:54:32;99340.03;;;2.53;67.42
15694;BME280;7947;48.834;9.132;2023-01-29T09:57:42;99329.38;;;2.74;66.74
15694;BME280;7947;48.834;9.132;2023-01-29T10:00:53;99314.78;;;2.91;65.57
15694;BME280;7947;48.834;9.132;2023-01-29T10:04:12;99304.91;;;3.13;65.50
15694;BME280;7947;48.834;9.132;2023-01-29T10:07:31;99293.97;;;3.35;64.02
15694;BME280;7947;48.834;9.132;2023-01-29T10:10:45;99290.13;;;3.44;63.26
15694;BME280;7947;48.834;9.132;2023-01-29T10:13:58;99298.25;;;3.43;62.69
15694;BME280;7947;48.834;9.132;2023-01-29T10:17:23;99297.66;;;3.47;62.95
15694;BME280;7947;48.834;9.132;2023-01-29T10:20:42;99304.34;;;3.30;64.28
15694;BME280;7947;48.834;9.132;2023-01-29T10:23:50;99298.25;;;3.36;64.12
15694;BME280;7947;48.834;9.132;2023-01-29T10:26:56;99304.59;;;3.55;64.79
15694;BME280;7947;48.834;9.132;2023-01-29T10:30:01;99311.34;;;3.57;64.00
15694;BME280;7947;48.834;9.132;2023-01-29T10:33:14;99309.28;;;3.53;62.81
15694;BME280;7947;48.834;9.132;2023-01-29T10:36:22;99291.53;;;3.40;63.79
15694;BME280;7947;48.834;9.132;2023-01-29T10:39:29;99295.00;;;3.34;63.83
15694;BME280;7947;48.834;9.132;2023-01-29T10:42:36;99302.31;;;3.32;64.74
15694;BME280;7947;48.834;9.132;2023-01-29T10:45:45;99313.72;;;3.26;65.48
15694;BME280;7947;48.834;9.132;2023-01-29T10:48:59;99315.97;;;3.29;65.19
15694;BME280;7947;48.834;9.132;2023-01-29T10:52:15;99304.13;;;3.25;65.59
15694;BME280;7947;48.834;9.132;2023-01-29T10:55:33;99293.13;;;3.28;64.43
15694;BME280;7947;48.834;9.132;2023-01-29T10:58:45;99296.41;;;3.37;65.22
15694;BME280;7947;48.834;9.132;2023-01-29T11:01:50;99301.28;;;3.33;65.85
15694;BME280;7947;48.834;9.132;2023-01-29T11:04:54;99305.19;;;3.37;66.08
15694;BME280;7947;48.834;9.132;2023-01-29T11:08:04;99304.97;;;3.39;63.98
15694;BME280;7947;48.834;9.132;2023-01-29T11:11:12;99300.91;;;3.36;63.74
15694;BME280;7947;48.834;9.132;2023-01-29T11:14:20;99303.31;;;3.31;63.96
15694;BME280;7947;48.834;9.132;2023-01-29T11:17:25;99292.34;;;3.41;64.52
15694;BME280;7947;48.834;9.132;2023-01-29T11:20:31;99300.94;;;3.49;63.79
15694;BME280;7947;48.834;9.132;2023-01-29T11:23:36;99279.69;;;3.36;65.03
15694;BME280;7947;48.834;9.132;2023-01-29T11:26:41;99273.97;;;3.39;64.66
15694;BME280;7947;48.834;9.132;2023-01-29T11:29:46;99266.44;;;3.36;64.27
15694;BME280;7947;48.834;9.132;2023-01-29T11:33:05;99255.84;;;3.36;63.82
15694;BME280;7947;48.834;9.132;2023-01-29T11:36:30;99262.34;;;3.34;64.51
15694;BME280;7947;48.834;9.132;2023-01-29T11:39:42;99257.06;;;3.40;64.89
15694;BME280;7947;48.834;9.132;2023-01-29T11:42:45;99261.75;;;3.38;64.18
15694;BME280;7947;48.834;9.132;2023-01-29T11:45:50;99255.25;;;3.47;64.60
15694;BME280;7947;48.834;9.132;2023-01-29T11:48:54;99261.16;;;3.62;64.35
15694;BME280;7947;48.834;9.132;2023-01-29T11:52:08;99250.38;;;3.71;64.17
15694;BME280;7947;48.834;9.132;2023-01-29T11:55:15;99251.41;;;3.83;63.43
15694;BME280;7947;48.834;9.132;2023-01-29T11:58:25;99246.28;;;4.01;63.27
15694;BME280;7947;48.834;9.132;2023-01-29T12:01:31;99237.69;;;4.18;61.34
15694;BME280;7947;48.834;9.132;2023-01-29T12:04:38;99230.75;;;4.24;62.55
15694;BME280;7947;48.834;9.132;2023-01-29T12:07:43;99222.50;;;4.51;62.45
15694;BME280;7947;48.834;9.132;2023-01-29T12:10:46;99211.50;;;4.99;59.67
15694;BME280;7947;48.834;9.132;2023-01-29T12:13:52;99197.25;;;5.24;57.75
15694;BME280;7947;48.834;9.132;2023-01-29T12:16:58;99193.19;;;5.71;56.33
15694;BME280;7947;48.834;9.132;2023-01-29T12:20:08;99181.81;;;6.31;56.00
15694;BME280;7947;48.834;9.132;2023-01-29T12:23:23;99181.53;;;6.87;53.05
15694;BME280;7947;48.834;9.132;2023-01-29T12:26:30;99168.53;;;7.50;52.42
15694;BME280;7947;48.834;9.132;2023-01-29T12:29:41;99150.22;;;8.11;49.39
15694;BME280;7947;48.834;9.132;2023-01-29T12:32:50;99138.84;;;8.28;48.24
15694;BME280;7947;48.834;9.132;2023-01-29T12:36:01;99134.97;;;8.47;47.44
15694;BME280;7947;48.834;9.132;2023-01-29T12:39:10;99137.91;;;8.45;46.02
15694;BME280;7947;48.834;9.132;2023-01-29T12:42:18;99121.75;;;8.17;47.07
15694;BME280;7947;48.834;9.132;2023-01-29T12:45:23;99123.63;;;8.40;47.30
15694;BME280;7947;48.834;9.132;2023-01-29T12:48:31;99113.31;;;8.60;48.66
15694;BME280;7947;48.834;9.132;2023-01-29T12:51:39;99109.91;;;8.25;46.55
15694;BME280;7947;48.834;9.132;2023-01-29T12:54:51;99110.06;;;7.95;48.83
15694;BME280;7947;48.834;9.132;2023-01-29T12:57:57;99105.19;;;7.57;48.43
15694;BME280;7947;48.834;9.132;2023-01-29T13:01:05;99103.19;;;6.88;49.29
15694;BME280;7947;48.834;9.132;2023-01-29T13:04:16;99095.78;;;6.61;50.62
15694;BME280;7947;48.834;9.132;2023-01-29T13:07:25;99094.66;;;6.38;51.18
15694;BME280;7947;48.834;9.132;2023-01-29T13:10:36;99086.66;;;6.38;51.21
15694;BME280;7947;48.834;9.132;2023-01-29T13:13:47;99083.03;;;6.63;51.67
15694;BME280;7947;48.834;9.132;2023-01-29T13:17:06;99082.94;;;7.10;50.59
15694;BME280;7947;48.834;9.132;2023-01-29T13:20:14;99081.88;;;7.87;48.77
15694;BME280;7947;48.834;9.132;2023-01-29T13:23:20;99075.19;;;8.64;47.07
15694;BME280;7947;48.834;9.132;2023-01-29T13:26:25;99076.78;;;8.65;45.72
15694;BME280;7947;48.834;9.132;2023-01-29T13:29:29;99081.84;;;7.99;47.58
15694;BME280;7947;48.834;9.132;2023-01-29T13:32:34;99080.13;;;7.47;48.25
15694;BME280;7947;48.834;9.132;2023-01-29T13:35:38;99087.59;;;7.03;49.91
15694;BME280;7947;48.834;9.132;2023-01-29T13:38:42;99094.06;;;6.66;50.62
15694;BME280;7947;48.834;9.132;2023-01-29T13:41:48;99081.69;;;6.42;51.63
15694;BME280;7947;48.834;9.132;2023-01-29T13:44:54;99083.13;;;6.26;51.96
15694;BME280;7947;48.834;9.132;2023-01-29T13:48:08;99094.66;;;6.20;53.06
15694;BME280;7947;48.834;9.132;2023-01-29T13:51:13;99097.81;;;5.75;53.10
15694;BME280;7947;48.834;9.132;2023-01-29T13:54:22;99094.88;;;5.58;53.49
15694;BME280;7947;48.834;9.132;2023-01-29T13:57:48;99097.84;;;5.19;56.77
15694;BME280;7947;48.834;9.132;2023-01-29T14:00:53;99093.47;;;5.31;56.08
15694;BME280;7947;48.834;9.132;2023-01-29T14:03:55;99098.69;;;5.19;56.40
15694;BME280;7947;48.834;9.132;2023-01-29T14:07:46;99096.69;;;5.15;57.11
15694;BME280;7947;48.834;9.132;2023-01-29T14:18:24;99084.81;;;4.86;58.82
15694;BME280;7947;48.834;9.132;2023-01-29T14:21:29;99087.53;;;4.80;60.27
15694;BME280;7947;48.834;9.132;2023-01-29T14:24:34;99088.59;;;4.72;61.07
15694;BME280;7947;48.834;9.132;2023-01-29T14:27:37;99083.34;;;4.59;59.67
15694;BME280;7947;48.834;9.132;2023-01-29T14:33:46;99076.34;;;4.27;61.09
15694;BME280;7947;48.834;9.132;2023-01-29T14:36:50;99070.47;;;4.18;62.96
15694;BME280;7947;48.834;9.132;2023-01-29T14:39:58;99076.41;;;4.14;61.85
15694;BME280;7947;48.834;9.132;2023-01-29T14:43:15;99075.22;;;4.10;61.65
15694;BME280;7947;48.834;9.132;2023-01-29T14:46:42;99076.88;;;4.04;62.13
15694;BME280;7947;48.834;9.132;2023-01-29T14:49:51;99077.69;;;3.98;62.55
15694;BME280;7947;48.834;9.132;2023-01-29T14:52:58;99077.13;;;3.83;62.86
15694;BME280;7947;48.834;9.132;2023-01-29T14:56:10;99065.31;;;3.79;63.12
15694;BME280;7947;48.834;9.132;2023-01-29T14:59:18;99065.50;;;3.78;63.81
15694;BME280;7947;48.834;9.132;2023-01-29T15:02:24;99074.31;;;3.58;64.30
15694;BME280;7947;48.834;9.132;2023-01-29T15:05:30;99075.16;;;3.46;64.94
15694;BME280;7947;48.834;9.132;2023-01-29T15:08:37;99082.09;;;3.53;64.75
15694;BME280;7947;48.834;9.132;2023-01-29T15:11:54;99091.44;;;3.62;65.26
15694;BME280;7947;48.834;9.132;2023-01-29T15:15:04;99090.66;;;3.49;65.61
15694;BME280;7947;48.834;9.132;2023-01-29T15:18:14;99088.81;;;3.30;66.92
15694;BME280;7947;48.834;9.132;2023-01-29T15:21:18;99084.13;;;3.25;67.25
15694;BME280;7947;48.834;9.132;2023-01-29T15:24:21;99088.44;;;3.26;66.97
15694;BME280;7947;48.834;9.132;2023-01-29T15:27:25;99082.13;;;3.21;67.18
15694;BME280;7947;48.834;9.132;2023-01-29T15:30:32;99076.81;;;3.01;67.56
15694;BME280;7947;48.834;9.132;2023-01-29T15:33:35;99067.22;;;3.00;68.13
15694;BME280;7947;48.834;9.132;2023-01-29T15:36:39;99073.53;;;2.86;69.16
15694;BME280;7947;48.834;9.132;2023-01-29T15:39:42;99073.94;;;2.90;69.33
15694;BME280;7947;48.834;9.132;2023-01-29T15:42:46;99078.00;;;2.79;69.58
15694;BME280;7947;48.834;9.132;2023-01-29T15:45:50;99079.22;;;2.70;69.70
15694;BME280;7947;48.834;9.132;2023-01-29T15:48:54;99080.00;;;2.64;70.23
15694;BME280;7947;48.834;9.132;2023-01-29T15:51:59;99083.06;;;2.67;70.53
15694;BME280;7947;48.834;9.132;2023-01-29T15:55:05;99080.22;;;2.62;70.94
15694;BME280;7947;48.834;9.132;2023-01-29T15:58:15;99077.94;;;2.46;70.36
15694;BME280;7947;48.834;9.132;2023-01-29T16:01:19;99085.47;;;2.43;71.41
15694;BME280;7947;48.834;9.132;2023-01-29T16:04:24;99083.84;;;2.48;71.77
15694;BME280;7947;48.834;9.132;2023-01-29T16:07:29;99084.91;;;2.60;72.24
15694;BME280;7947;48.834;9.132;2023-01-29T16:10:33;99078.75;;;2.47;71.48
15694;BME280;7947;48.834;9.132;2023-01-29T16:13:39;99082.38;;;2.33;72.17
15694;BME280;7947;48.834;9.132;2023-01-29T16:16:43;99079.50;;;2.28;71.94
15694;BME280;7947;48.834;9.132;2023-01-29T16:19:54;99066.78;;;2.04;72.55
15694;BME280;7947;48.834;9.132;2023-01-29T16:22:58;99067.31;;;1.79;73.48
15694;BME280;7947;48.834;9.132;2023-01-29T16:26:04;99069.78;;;1.88;73.80
15694;BME280;7947;48.834;9.132;2023-01-29T16:29:12;99075.25;;;1.86;73.41
15694;BME280;7947;48.834;9.132;2023-01-29T16:32:15;99076.91;;;1.94;73.85
15694;BME280;7947;48.834;9.132;2023-01-29T16:35:18;99074.88;;;1.89;73.44
15694;BME280;7947;48.834;9.132;2023-01-29T16:38:28;99079.28;;;1.82;73.62
15694;BME280;7947;48.834;9.132;2023-01-29T16:41:33;99085.97;;;1.71;73.45
15694;BME280;7947;48.834;9.132;2023-01-29T16:44:44;99088.91;;;1.55;74.12
15694;BME280;7947;48.834;9.132;2023-01-29T16:47:58;99089.50;;;1.51;74.77
15694;BME280;7947;48.834;9.132;2023-01-29T16:51:03;99089.44;;;1.44;75.25
15694;BME280;7947;48.834;9.132;2023-01-29T16:54:10;99103.00;;;1.35;75.15
15694;BME280;7947;48.834;9.132;2023-01-29T16:57:20;99092.38;;;1.56;75.96
15694;BME280;7947;48.834;9.132;2023-01-29T17:00:26;99101.97;;;1.63;74.78
15694;BME280;7947;48.834;9.132;2023-01-29T17:03:32;99107.25;;;1.63;74.37
15694;BME280;7947;48.834;9.132;2023-01-29T17:06:35;99105.97;;;1.53;74.59
15694;BME280;7947;48.834;9.132;2023-01-29T17:09:39;99106.19;;;1.30;74.88
15694;BME280;7947;48.834;9.132;2023-01-29T17:12:49;99109.44;;;1.26;75.56